sensor_id;sensor_type;location;lat;lon;timestamp;temperature;humidity
4701;DHT22;8724;51.272;6.554;2023-08-17T00:01:51;23.10;99.90
4701;DHT22;8724;51.272;6.554;2023-08-17T00:04:20;23.10;99.90
4701;DHT22;8724;51.272;6.554;2023-08-17T00:06:49;23.00;99.90
4701;DHT22;8724;51.272;6.554;2023-08-17T00:09:17;23.00;99.90
4701;DHT22;8724;51.272;6.554;2023-08-17T00:11:45;23.00;99.90
4701;DHT22;8724;51.272;6.554;2023-08-17T00:14:13;23.00;99.90
4701;DHT22;8724;51.272;6.554;2023-08-17T00:16:41;23.00;99.90
4701;DHT22;8724;51.272;6.554;2023-08-17T00:19:10;22.90;99.90
4701;DHT22;8724;51.272;6.554;2023-08-17T00:21:38;22.90;99.90
4701;DHT22;8724;51.272;6.554;2023-08-17T00:24:08;23.00;99.90
4701;DHT22;8724;51.272;6.554;2023-08-17T00:26:36;22.80;99.90
4701;DHT22;8724;51.272;6.554;2023-08-17T00:29:04;22.80;99.90
4701;DHT22;8724;51.272;6.554;2023-08-17T00:31:33;22.80;99.90
4701;DHT22;8724;51.272;6.554;2023-08-17T00:34:01;22.80;99.90
4701;DHT22;8724;51.272;6.554;2023-08-17T00:36:30;22.80;99.90
4701;DHT22;8724;51.272;6.554;2023-08-17T00:38:58;22.80;99.90
4701;DHT22;8724;51.272;6.554;2023-08-17T00:41:28;22.80;99.90
4701;DHT22;8724;51.272;6.554;2023-08-17T00:43:57;22.80;99.90
4701;DHT22;8724;51.272;6.554;2023-08-17T00:46:25;22.80;99.90
4701;DHT22;8724;51.272;6.554;2023-08-17T00:48:56;22.80;99.90
4701;DHT22;8724;51.272;6.554;2023-08-17T00:51:26;22.70;99.90
4701;DHT22;8724;51.272;6.554;2023-08-17T00:53:57;22.70;99.90
4701;DHT22;8724;51.272;6.554;2023-08-17T00:56:27;22.70;99.90
4701;DHT22;8724;51.272;6.554;2023-08-17T00:58:56;22.80;99.90
4701;DHT22;8724;51.272;6.554;2023-08-17T01:01:24;22.70;99.90
4701;DHT22;8724;51.272;6.554;2023-08-17T01:03:52;22.70;99.90
4701;DHT22;8724;51.272;6.554;2023-08-17T01:06:22;22.70;99.90
4701;DHT22;8724;51.272;6.554;2023-08-17T01:08:50;22.60;99.90
4701;DHT22;8724;51.272;6.554;2023-08-17T01:11:24;22.70;99.90
4701;DHT22;8724;51.272;6.554;2023-08-17T01:13:59;22.60;99.90
4701;DHT22;8724;51.272;6.554;2023-08-17T01:16:33;22.60;99.90
4701;DHT22;8724;51.272;6.554;2023-08-17T01:19:07;22.60;99.90
4701;DHT22;8724;51.272;6.554;2023-08-17T01:21:41;22.60;99.90
4701;DHT22;8724;51.272;6.554;2023-08-17T01:24:12;22.70;99.90
4701;DHT22;8724;51.272;6.554;2023-08-17T01:26:42;22.60;99.90
4701;DHT22;8724;51.272;6.554;2023-08-17T01:29:10;22.60;99.90
4701;DHT22;8724;51.272;6.554;2023-08-17T01:31:46;22.60;99.90
4701;DHT22;8724;51.272;6.554;2023-08-17T01:34:19;22.60;99.90
4701;DHT22;8724;51.272;6.554;2023-08-17T01:36:53;22.60;99.90
4701;DHT22;8724;51.272;6.554;2023-08-17T01:39:27;22.60;99.90
4701;DHT22;8724;51.272;6.554;2023-08-17T01:41:58;22.60;99.90
4701;DHT22;8724;51.272;6.554;2023-08-17T01:44:28;22.60;99.90
4701;DHT22;8724;51.272;6.554;2023-08-17T01:46:56;22.60;99.90
4701;DHT22;8724;51.272;6.554;2023-08-17T01:49:24;22.80;99.90
4701;DHT22;8724;51.272;6.554;2023-08-17T01:51:53;22.50;99.90
4701;DHT22;8724;51.272;6.554;2023-08-17T01:54:21;22.50;99.90
4701;DHT22;8724;51.272;6.554;2023-08-17T01:56:51;22.50;99.90
4701;DHT22;8724;51.272;6.554;2023-08-17T01:59:19;22.50;99.90
4701;DHT22;8724;51.272;6.554;2023-08-17T02:01:47;22.50;99.90
4701;DHT22;8724;51.272;6.554;2023-08-17T02:04:16;22.50;99.90
4701;DHT22;8724;51.272;6.554;2023-08-17T02:06:44;22.50;99.90
4701;DHT22;8724;51.272;6.554;2023-08-17T02:09:12;22.50;99.90
4701;DHT22;8724;51.272;6.554;2023-08-17T02:11:40;22.50;99.90
4701;DHT22;8724;51.272;6.554;2023-08-17T02:14:09;22.50;99.90
4701;DHT22;8724;51.272;6.554;2023-08-17T02:16:37;22.50;99.90
4701;DHT22;8724;51.272;6.554;2023-08-17T02:19:06;22.50;99.90
4701;DHT22;8724;51.272;6.554;2023-08-17T02:21:34;22.40;99.90
4701;DHT22;8724;51.272;6.554;2023-08-17T02:24:02;22.40;99.90
4701;DHT22;8724;51.272;6.554;2023-08-17T02:26:29;22.40;99.90
4701;DHT22;8724;51.272;6.554;2023-08-17T02:28:58;22.60;99.90
4701;DHT22;8724;51.272;6.554;2023-08-17T02:31:27;22.40;99.90
4701;DHT22;8724;51.272;6.554;2023-08-17T02:33:56;22.40;99.90
4701;DHT22;8724;51.272;6.554;2023-08-17T02:36:27;22.40;99.90
4701;DHT22;8724;51.272;6.554;2023-08-17T02:38:56;22.40;99.90
4701;DHT22;8724;51.272;6.554;2023-08-17T02:41:25;22.40;99.90
4701;DHT22;8724;51.272;6.554;2023-08-17T02:43:53;22.40;99.90
4701;DHT22;8724;51.272;6.554;2023-08-17T02:46:21;22.40;99.90
4701;DHT22;8724;51.272;6.554;2023-08-17T02:48:50;22.40;99.90
4701;DHT22;8724;51.272;6.554;2023-08-17T02:51:19;22.40;99.90
4701;DHT22;8724;51.272;6.554;2023-08-17T02:53:48;22.40;99.90
4701;DHT22;8724;51.272;6.554;2023-08-17T02:56:16;22.40;99.90
4701;DHT22;8724;51.272;6.554;2023-08-17T02:58:44;22.30;99.90
4701;DHT22;8724;51.272;6.554;2023-08-17T03:01:12;22.30;99.90
4701;DHT22;8724;51.272;6.554;2023-08-17T03:03:40;22.30;99.90
4701;DHT22;8724;51.272;6.554;2023-08-17T03:06:12;22.30;99.90
4701;DHT22;8724;51.272;6.554;2023-08-17T03:08:40;22.30;99.90
4701;DHT22;8724;51.272;6.554;2023-08-17T03:11:10;22.30;99.90
4701;DHT22;8724;51.272;6.554;2023-08-17T03:13:39;22.60;99.90
4701;DHT22;8724;51.272;6.554;2023-08-17T03:16:07;22.30;99.90
4701;DHT22;8724;51.272;6.554;2023-08-17T03:18:36;22.30;99.90
4701;DHT22;8724;51.272;6.554;2023-08-17T03:21:06;22.30;99.90
4701;DHT22;8724;51.272;6.554;2023-08-17T03:23:36;22.20;99.90
4701;DHT22;8724;51.272;6.554;2023-08-17T03:26:04;22.40;99.90
4701;DHT22;8724;51.272;6.554;2023-08-17T03:28:32;22.20;99.90
4701;DHT22;8724;51.272;6.554;2023-08-17T03:31:00;22.20;99.90
4701;DHT22;8724;51.272;6.554;2023-08-17T03:33:28;22.60;99.90
4701;DHT22;8724;51.272;6.554;2023-08-17T03:35:57;22.20;99.90
4701;DHT22;8724;51.272;6.554;2023-08-17T03:38:26;22.20;99.90
4701;DHT22;8724;51.272;6.554;2023-08-17T03:40:56;22.20;99.90
4701;DHT22;8724;51.272;6.554;2023-08-17T03:43:25;22.20;99.90
4701;DHT22;8724;51.272;6.554;2023-08-17T03:45:54;22.20;99.90
4701;DHT22;8724;51.272;6.554;2023-08-17T03:48:22;22.10;99.90
4701;DHT22;8724;51.272;6.554;2023-08-17T03:50:51;22.10;99.90
4701;DHT22;8724;51.272;6.554;2023-08-17T03:53:20;22.10;99.90
4701;DHT22;8724;51.272;6.554;2023-08-17T03:55:49;22.10;99.90
4701;DHT22;8724;51.272;6.554;2023-08-17T03:58:19;22.10;99.90
4701;DHT22;8724;51.272;6.554;2023-08-17T04:00:52;22.10;99.90
4701;DHT22;8724;51.272;6.554;2023-08-17T04:03:26;22.10;99.90
4701;DHT22;8724;51.272;6.554;2023-08-17T04:05:54;22.10;99.90
4701;DHT22;8724;51.272;6.554;2023-08-17T04:08:22;22.10;99.90
4701;DHT22;8724;51.272;6.554;2023-08-17T04:10:50;22.30;99.90
4701;DHT22;8724;51.272;6.554;2023-08-17T04:13:20;22.00;99.90
4701;DHT22;8724;51.272;6.554;2023-08-17T04:15:50;22.00;99.90
4701;DHT22;8724;51.272;6.554;2023-08-17T04:18:18;22.00;99.90
4701;DHT22;8724;51.272;6.554;2023-08-17T04:20:46;22.00;99.90
4701;DHT22;8724;51.272;6.554;2023-08-17T04:23:15;22.00;99.90
4701;DHT22;8724;51.272;6.554;2023-08-17T04:25:44;22.00;99.90
4701;DHT22;8724;51.272;6.554;2023-08-17T04:28:12;22.00;99.90
4701;DHT22;8724;51.272;6.554;2023-08-17T04:30:44;22.00;99.90
4701;DHT22;8724;51.272;6.554;2023-08-17T04:33:13;22.00;99.90
4701;DHT22;8724;51.272;6.554;2023-08-17T04:35:41;22.00;99.90
4701;DHT22;8724;51.272;6.554;2023-08-17T04:38:09;22.00;99.90
4701;DHT22;8724;51.272;6.554;2023-08-17T04:40:37;22.00;99.90
4701;DHT22;8724;51.272;6.554;2023-08-17T04:43:07;22.00;99.90
4701;DHT22;8724;51.272;6.554;2023-08-17T04:45:36;21.90;99.90
4701;DHT22;8724;51.272;6.554;2023-08-17T04:48:06;22.00;99.90
4701;DHT22;8724;51.272;6.554;2023-08-17T04:50:35;22.00;99.90
4701;DHT22;8724;51.272;6.554;2023-08-17T04:53:04;22.20;99.90
4701;DHT22;8724;51.272;6.554;2023-08-17T04:55:32;22.00;99.90
4701;DHT22;8724;51.272;6.554;2023-08-17T04:58:00;21.90;99.90
4701;DHT22;8724;51.272;6.554;2023-08-17T05:00:29;22.00;99.90
4701;DHT22;8724;51.272;6.554;2023-08-17T05:02:58;22.00;99.90
4701;DHT22;8724;51.272;6.554;2023-08-17T05:05:33;22.00;99.90
4701;DHT22;8724;51.272;6.554;2023-08-17T05:08:05;22.30;99.90
4701;DHT22;8724;51.272;6.554;2023-08-17T05:10:34;21.90;99.90
4701;DHT22;8724;51.272;6.554;2023-08-17T05:13:02;21.90;99.90
4701;DHT22;8724;51.272;6.554;2023-08-17T05:15:31;22.00;99.90
4701;DHT22;8724;51.272;6.554;2023-08-17T05:18:03;21.90;99.90
4701;DHT22;8724;51.272;6.554;2023-08-17T05:20:33;22.00;99.90
4701;DHT22;8724;51.272;6.554;2023-08-17T05:23:01;22.00;99.90
4701;DHT22;8724;51.272;6.554;2023-08-17T05:25:29;22.00;99.90
4701;DHT22;8724;51.272;6.554;2023-08-17T05:27:57;22.00;99.90
4701;DHT22;8724;51.272;6.554;2023-08-17T05:30:25;22.00;99.90
4701;DHT22;8724;51.272;6.554;2023-08-17T05:32:54;22.00;99.90
4701;DHT22;8724;51.272;6.554;2023-08-17T05:35:23;22.00;99.90
4701;DHT22;8724;51.272;6.554;2023-08-17T05:37:52;21.90;99.90
4701;DHT22;8724;51.272;6.554;2023-08-17T05:40:20;21.90;99.90
4701;DHT22;8724;51.272;6.554;2023-08-17T05:42:48;21.90;99.90
4701;DHT22;8724;51.272;6.554;2023-08-17T05:45:17;22.00;99.90
4701;DHT22;8724;51.272;6.554;2023-08-17T05:47:45;22.00;99.90
4701;DHT22;8724;51.272;6.554;2023-08-17T05:50:13;22.00;99.90
4701;DHT22;8724;51.272;6.554;2023-08-17T05:52:41;21.90;99.90
4701;DHT22;8724;51.272;6.554;2023-08-17T05:55:11;22.00;99.90
4701;DHT22;8724;51.272;6.554;2023-08-17T05:57:39;21.90;99.90
4701;DHT22;8724;51.272;6.554;2023-08-17T06:00:08;22.00;99.90
4701;DHT22;8724;51.272;6.554;2023-08-17T06:02:41;22.00;99.90
4701;DHT22;8724;51.272;6.554;2023-08-17T06:05:10;21.90;99.90
4701;DHT22;8724;51.272;6.554;2023-08-17T06:07:38;22.00;99.90
4701;DHT22;8724;51.272;6.554;2023-08-17T06:10:07;22.20;99.90
4701;DHT22;8724;51.272;6.554;2023-08-17T06:12:37;22.00;99.90
4701;DHT22;8724;51.272;6.554;2023-08-17T06:15:06;22.00;99.90
4701;DHT22;8724;51.272;6.554;2023-08-17T06:17:34;22.00;99.90
4701;DHT22;8724;51.272;6.554;2023-08-17T06:20:03;22.00;99.90
4701;DHT22;8724;51.272;6.554;2023-08-17T06:22:31;22.00;99.90
4701;DHT22;8724;51.272;6.554;2023-08-17T06:25:00;22.20;99.90
4701;DHT22;8724;51.272;6.554;2023-08-17T06:27:28;22.00;99.90
4701;DHT22;8724;51.272;6.554;2023-08-17T06:29:57;22.00;99.90
4701;DHT22;8724;51.272;6.554;2023-08-17T06:32:25;22.00;99.90
4701;DHT22;8724;51.272;6.554;2023-08-17T06:34:53;22.00;99.90
4701;DHT22;8724;51.272;6.554;2023-08-17T06:37:22;22.00;99.90
4701;DHT22;8724;51.272;6.554;2023-08-17T06:39:50;22.00;99.90
4701;DHT22;8724;51.272;6.554;2023-08-17T06:42:19;22.00;99.90
4701;DHT22;8724;51.272;6.554;2023-08-17T06:44:47;22.00;99.90
4701;DHT22;8724;51.272;6.554;2023-08-17T06:47:16;22.00;99.90
4701;DHT22;8724;51.272;6.554;2023-08-17T06:49:45;22.00;99.90
4701;DHT22;8724;51.272;6.554;2023-08-17T06:52:13;22.00;99.90
4701;DHT22;8724;51.272;6.554;2023-08-17T06:54:41;22.10;99.90
4701;DHT22;8724;51.272;6.554;2023-08-17T06:57:09;22.00;99.90
4701;DHT22;8724;51.272;6.554;2023-08-17T06:59:37;22.00;99.90
4701;DHT22;8724;51.272;6.554;2023-08-17T07:02:06;22.00;99.90
4701;DHT22;8724;51.272;6.554;2023-08-17T07:04:35;22.00;99.90
4701;DHT22;8724;51.272;6.554;2023-08-17T07:07:04;22.00;99.90
4701;DHT22;8724;51.272;6.554;2023-08-17T07:09:33;22.00;99.90
4701;DHT22;8724;51.272;6.554;2023-08-17T07:12:01;22.00;99.90
4701;DHT22;8724;51.272;6.554;2023-08-17T07:14:30;22.00;99.90
4701;DHT22;8724;51.272;6.554;2023-08-17T07:16:58;22.00;99.90
4701;DHT22;8724;51.272;6.554;2023-08-17T07:19:26;22.00;99.90
4701;DHT22;8724;51.272;6.554;2023-08-17T07:22:16;22.20;99.90
4701;DHT22;8724;51.272;6.554;2023-08-17T07:24:44;22.00;99.90
4701;DHT22;8724;51.272;6.554;2023-08-17T07:27:13;22.00;99.90
4701;DHT22;8724;51.272;6.554;2023-08-17T07:29:41;22.00;99.90
4701;DHT22;8724;51.272;6.554;2023-08-17T07:32:09;22.00;99.90
4701;DHT22;8724;51.272;6.554;2023-08-17T07:34:37;22.00;99.90
4701;DHT22;8724;51.272;6.554;2023-08-17T07:37:05;22.00;99.90
4701;DHT22;8724;51.272;6.554;2023-08-17T07:39:35;22.00;99.90
4701;DHT22;8724;51.272;6.554;2023-08-17T07:42:03;22.00;99.90
4701;DHT22;8724;51.272;6.554;2023-08-17T07:44:32;22.00;99.90
4701;DHT22;8724;51.272;6.554;2023-08-17T07:47:01;22.00;99.90
4701;DHT22;8724;51.272;6.554;2023-08-17T07:49:30;22.00;99.90
4701;DHT22;8724;51.272;6.554;2023-08-17T07:51:59;22.00;99.90
4701;DHT22;8724;51.272;6.554;2023-08-17T07:54:27;22.00;99.90
4701;DHT22;8724;51.272;6.554;2023-08-17T07:56:57;22.00;99.90
4701;DHT22;8724;51.272;6.554;2023-08-17T07:59:25;22.10;99.90
4701;DHT22;8724;51.272;6.554;2023-08-17T08:01:53;22.00;99.90
4701;DHT22;8724;51.272;6.554;2023-08-17T08:04:22;22.10;99.90
4701;DHT22;8724;51.272;6.554;2023-08-17T08:06:50;22.10;99.90
4701;DHT22;8724;51.272;6.554;2023-08-17T08:09:18;22.10;99.90
4701;DHT22;8724;51.272;6.554;2023-08-17T08:11:47;22.10;99.90
4701;DHT22;8724;51.272;6.554;2023-08-17T08:14:17;22.10;99.90
4701;DHT22;8724;51.272;6.554;2023-08-17T08:16:45;22.10;99.90
4701;DHT22;8724;51.272;6.554;2023-08-17T08:19:13;22.40;99.90
4701;DHT22;8724;51.272;6.554;2023-08-17T08:21:42;22.10;99.90
4701;DHT22;8724;51.272;6.554;2023-08-17T08:24:10;22.20;99.90
4701;DHT22;8724;51.272;6.554;2023-08-17T08:26:56;22.10;99.90
4701;DHT22;8724;51.272;6.554;2023-08-17T08:29:26;22.10;99.90
4701;DHT22;8724;51.272;6.554;2023-08-17T08:31:54;22.20;99.90
4701;DHT22;8724;51.272;6.554;2023-08-17T08:34:24;22.10;99.90
4701;DHT22;8724;51.272;6.554;2023-08-17T08:36:52;22.30;99.90
4701;DHT22;8724;51.272;6.554;2023-08-17T08:39:20;22.10;99.90
4701;DHT22;8724;51.272;6.554;2023-08-17T08:41:48;22.20;99.90
4701;DHT22;8724;51.272;6.554;2023-08-17T08:44:16;22.20;99.90
4701;DHT22;8724;51.272;6.554;2023-08-17T08:46:46;22.30;99.90
4701;DHT22;8724;51.272;6.554;2023-08-17T08:49:20;22.20;99.90
4701;DHT22;8724;51.272;6.554;2023-08-17T08:51:50;22.40;99.90
4701;DHT22;8724;51.272;6.554;2023-08-17T08:54:21;22.20;99.90
4701;DHT22;8724;51.272;6.554;2023-08-17T08:56:53;22.30;99.90
4701;DHT22;8724;51.272;6.554;2023-08-17T08:59:23;22.40;99.90
4701;DHT22;8724;51.272;6.554;2023-08-17T09:01:55;22.20;99.90
4701;DHT22;8724;51.272;6.554;2023-08-17T09:04:25;22.20;99.90
4701;DHT22;8724;51.272;6.554;2023-08-17T09:06:54;22.20;99.90
4701;DHT22;8724;51.272;6.554;2023-08-17T09:09:23;22.20;99.90
4701;DHT22;8724;51.272;6.554;2023-08-17T09:11:56;22.20;99.90
4701;DHT22;8724;51.272;6.554;2023-08-17T09:14:24;22.20;99.90
4701;DHT22;8724;51.272;6.554;2023-08-17T09:16:52;22.20;99.90
4701;DHT22;8724;51.272;6.554;2023-08-17T09:19:22;22.20;99.90
4701;DHT22;8724;51.272;6.554;2023-08-17T09:21:50;22.20;99.90
4701;DHT22;8724;51.272;6.554;2023-08-17T09:24:18;22.20;99.90
4701;DHT22;8724;51.272;6.554;2023-08-17T09:26:48;22.20;99.90
4701;DHT22;8724;51.272;6.554;2023-08-17T09:29:18;22.20;99.90
4701;DHT22;8724;51.272;6.554;2023-08-17T09:31:46;22.20;99.90
4701;DHT22;8724;51.272;6.554;2023-08-17T09:34:15;22.20;99.90
4701;DHT22;8724;51.272;6.554;2023-08-17T09:36:47;22.20;99.90
4701;DHT22;8724;51.272;6.554;2023-08-17T09:39:16;22.20;99.90
4701;DHT22;8724;51.272;6.554;2023-08-17T09:41:45;22.20;99.90
4701;DHT22;8724;51.272;6.554;2023-08-17T09:44:13;22.20;99.90
4701;DHT22;8724;51.272;6.554;2023-08-17T09:46:44;22.30;99.90
4701;DHT22;8724;51.272;6.554;2023-08-17T09:49:12;22.30;99.90
4701;DHT22;8724;51.272;6.554;2023-08-17T09:51:42;22.30;99.90
4701;DHT22;8724;51.272;6.554;2023-08-17T09:54:20;22.30;99.90
4701;DHT22;8724;51.272;6.554;2023-08-17T09:56:50;22.30;99.90
4701;DHT22;8724;51.272;6.554;2023-08-17T09:59:19;22.30;99.90
4701;DHT22;8724;51.272;6.554;2023-08-17T10:01:49;22.30;99.90
4701;DHT22;8724;51.272;6.554;2023-08-17T10:04:23;22.30;99.90
4701;DHT22;8724;51.272;6.554;2023-08-17T10:06:57;22.30;99.90
4701;DHT22;8724;51.272;6.554;2023-08-17T10:09:31;22.30;99.90
4701;DHT22;8724;51.272;6.554;2023-08-17T10:12:06;22.40;99.90
4701;DHT22;8724;51.272;6.554;2023-08-17T10:14:49;22.30;99.90
4701;DHT22;8724;51.272;6.554;2023-08-17T10:17:26;22.30;99.90
4701;DHT22;8724;51.272;6.554;2023-08-17T10:19:57;22.30;99.90
4701;DHT22;8724;51.272;6.554;2023-08-17T10:22:30;22.40;99.90
4701;DHT22;8724;51.272;6.554;2023-08-17T10:25:01;22.30;99.90
4701;DHT22;8724;51.272;6.554;2023-08-17T10:27:30;22.40;99.90
4701;DHT22;8724;51.272;6.554;2023-08-17T10:29:59;22.40;99.90
4701;DHT22;8724;51.272;6.554;2023-08-17T10:32:28;22.40;99.90
4701;DHT22;8724;51.272;6.554;2023-08-17T10:34:57;22.40;99.90
4701;DHT22;8724;51.272;6.554;2023-08-17T10:37:26;22.50;99.90
4701;DHT22;8724;51.272;6.554;2023-08-17T10:39:55;22.40;99.90
4701;DHT22;8724;51.272;6.554;2023-08-17T10:42:34;22.40;99.90
4701;DHT22;8724;51.272;6.554;2023-08-17T10:45:25;22.40;99.90
4701;DHT22;8724;51.272;6.554;2023-08-17T10:50:59;22.40;99.90
4701;DHT22;8724;51.272;6.554;2023-08-17T10:53:27;22.40;99.90
4701;DHT22;8724;51.272;6.554;2023-08-17T10:56:01;22.40;99.90
4701;DHT22;8724;51.272;6.554;2023-08-17T10:58:32;22.40;99.90
4701;DHT22;8724;51.272;6.554;2023-08-17T11:01:01;22.40;99.90
4701;DHT22;8724;51.272;6.554;2023-08-17T11:03:29;22.40;99.90
4701;DHT22;8724;51.272;6.554;2023-08-17T11:05:57;22.50;99.90
4701;DHT22;8724;51.272;6.554;2023-08-17T11:08:28;22.40;99.90
4701;DHT22;8724;51.272;6.554;2023-08-17T11:10:58;22.70;99.90
4701;DHT22;8724;51.272;6.554;2023-08-17T11:13:32;22.40;99.90
4701;DHT22;8724;51.272;6.554;2023-08-17T11:16:01;22.40;99.90
4701;DHT22;8724;51.272;6.554;2023-08-17T11:18:30;22.50;99.90
4701;DHT22;8724;51.272;6.554;2023-08-17T11:21:00;22.60;99.90
4701;DHT22;8724;51.272;6.554;2023-08-17T11:23:29;22.40;99.90
4701;DHT22;8724;51.272;6.554;2023-08-17T11:25:58;22.50;99.90
4701;DHT22;8724;51.272;6.554;2023-08-17T11:28:26;22.60;99.90
4701;DHT22;8724;51.272;6.554;2023-08-17T11:30:58;22.50;99.90
4701;DHT22;8724;51.272;6.554;2023-08-17T11:33:27;22.50;99.90
4701;DHT22;8724;51.272;6.554;2023-08-17T11:35:55;22.50;99.90
4701;DHT22;8724;51.272;6.554;2023-08-17T11:38:30;22.50;99.90
4701;DHT22;8724;51.272;6.554;2023-08-17T11:40:59;22.50;99.90
4701;DHT22;8724;51.272;6.554;2023-08-17T11:43:28;22.50;99.90
4701;DHT22;8724;51.272;6.554;2023-08-17T11:45:59;22.50;99.90
4701;DHT22;8724;51.272;6.554;2023-08-17T11:48:27;22.50;99.90
4701;DHT22;8724;51.272;6.554;2023-08-17T11:51:01;22.60;99.90
4701;DHT22;8724;51.272;6.554;2023-08-17T11:53:34;22.60;99.90
4701;DHT22;8724;51.272;6.554;2023-08-17T11:56:03;22.60;99.90
4701;DHT22;8724;51.272;6.554;2023-08-17T11:58:39;22.60;99.90
4701;DHT22;8724;51.272;6.554;2023-08-17T12:01:10;22.60;99.90
4701;DHT22;8724;51.272;6.554;2023-08-17T12:03:40;22.60;99.90
4701;DHT22;8724;51.272;6.554;2023-08-17T12:06:10;22.60;99.90
4701;DHT22;8724;51.272;6.554;2023-08-17T12:08:42;22.60;99.90
4701;DHT22;8724;51.272;6.554;2023-08-17T12:11:13;22.90;99.90
4701;DHT22;8724;51.272;6.554;2023-08-17T12:13:46;22.70;99.90
4701;DHT22;8724;51.272;6.554;2023-08-17T12:16:18;22.70;99.90
4701;DHT22;8724;51.272;6.554;2023-08-17T12:18:47;22.70;99.90
4701;DHT22;8724;51.272;6.554;2023-08-17T12:21:16;22.70;99.90
4701;DHT22;8724;51.272;6.554;2023-08-17T12:23:44;23.00;99.90
4701;DHT22;8724;51.272;6.554;2023-08-17T12:26:18;22.70;99.90
4701;DHT22;8724;51.272;6.554;2023-08-17T12:28:47;22.80;99.90
4701;DHT22;8724;51.272;6.554;2023-08-17T12:31:22;22.80;99.90
4701;DHT22;8724;51.272;6.554;2023-08-17T12:33:51;22.80;99.90
4701;DHT22;8724;51.272;6.554;2023-08-17T12:36:20;22.70;99.90
4701;DHT22;8724;51.272;6.554;2023-08-17T12:38:49;22.80;99.90
4701;DHT22;8724;51.272;6.554;2023-08-17T12:41:17;22.80;99.90
4701;DHT22;8724;51.272;6.554;2023-08-17T12:43:46;22.80;99.90
4701;DHT22;8724;51.272;6.554;2023-08-17T12:46:15;22.80;99.90
4701;DHT22;8724;51.272;6.554;2023-08-17T12:48:45;22.80;99.90
4701;DHT22;8724;51.272;6.554;2023-08-17T12:51:13;22.80;99.90
4701;DHT22;8724;51.272;6.554;2023-08-17T12:53:41;22.80;99.90
4701;DHT22;8724;51.272;6.554;2023-08-17T12:56:16;22.80;99.90
4701;DHT22;8724;51.272;6.554;2023-08-17T12:58:44;22.80;99.90
4701;DHT22;8724;51.272;6.554;2023-08-17T13:01:12;22.80;99.90
4701;DHT22;8724;51.272;6.554;2023-08-17T13:03:41;23.10;99.90
4701;DHT22;8724;51.272;6.554;2023-08-17T13:06:11;23.20;99.90
4701;DHT22;8724;51.272;6.554;2023-08-17T13:08:39;22.90;99.90
4701;DHT22;8724;51.272;6.554;2023-08-17T13:11:07;23.00;99.90
4701;DHT22;8724;51.272;6.554;2023-08-17T13:13:36;22.90;99.90
4701;DHT22;8724;51.272;6.554;2023-08-17T13:16:04;22.90;99.90
4701;DHT22;8724;51.272;6.554;2023-08-17T13:18:32;22.90;99.90
4701;DHT22;8724;51.272;6.554;2023-08-17T13:21:00;22.90;99.90
4701;DHT22;8724;51.272;6.554;2023-08-17T13:23:30;22.90;99.90
4701;DHT22;8724;51.272;6.554;2023-08-17T13:25:59;22.90;99.90
4701;DHT22;8724;51.272;6.554;2023-08-17T13:28:27;22.90;99.90
4701;DHT22;8724;51.272;6.554;2023-08-17T13:30:55;22.90;99.90
4701;DHT22;8724;51.272;6.554;2023-08-17T13:33:40;22.90;99.90
4701;DHT22;8724;51.272;6.554;2023-08-17T13:36:08;22.90;99.90
4701;DHT22;8724;51.272;6.554;2023-08-17T13:38:37;22.90;99.90
4701;DHT22;8724;51.272;6.554;2023-08-17T13:41:05;22.90;99.90
4701;DHT22;8724;51.272;6.554;2023-08-17T13:43:34;22.90;99.90
4701;DHT22;8724;51.272;6.554;2023-08-17T13:46:02;22.90;99.90
4701;DHT22;8724;51.272;6.554;2023-08-17T13:48:30;22.90;99.90
4701;DHT22;8724;51.272;6.554;2023-08-17T13:50:58;22.90;99.90
4701;DHT22;8724;51.272;6.554;2023-08-17T13:53:27;22.90;99.90
4701;DHT22;8724;51.272;6.554;2023-08-17T13:55:56;22.90;99.90
4701;DHT22;8724;51.272;6.554;2023-08-17T13:58:25;22.90;99.90
4701;DHT22;8724;51.272;6.554;2023-08-17T14:00:53;22.90;99.90
4701;DHT22;8724;51.272;6.554;2023-08-17T14:03:33;22.90;99.90
4701;DHT22;8724;51.272;6.554;2023-08-17T14:06:02;22.90;99.90
4701;DHT22;8724;51.272;6.554;2023-08-17T14:08:30;22.90;99.90
4701;DHT22;8724;51.272;6.554;2023-08-17T14:11:00;22.90;99.90
4701;DHT22;8724;51.272;6.554;2023-08-17T14:13:28;22.90;99.90
4701;DHT22;8724;51.272;6.554;2023-08-17T14:15:56;22.80;99.90
4701;DHT22;8724;51.272;6.554;2023-08-17T14:18:26;23.20;99.90
4701;DHT22;8724;51.272;6.554;2023-08-17T14:20:54;22.90;99.90
4701;DHT22;8724;51.272;6.554;2023-08-17T14:23:22;22.90;99.90
4701;DHT22;8724;51.272;6.554;2023-08-17T14:25:51;22.80;99.90
4701;DHT22;8724;51.272;6.554;2023-08-17T14:28:21;22.80;99.90
4701;DHT22;8724;51.272;6.554;2023-08-17T14:30:49;22.80;99.90
4701;DHT22;8724;51.272;6.554;2023-08-17T14:33:19;22.90;99.90
4701;DHT22;8724;51.272;6.554;2023-08-17T14:35:48;22.80;99.90
4701;DHT22;8724;51.272;6.554;2023-08-17T14:38:16;22.90;99.90
4701;DHT22;8724;51.272;6.554;2023-08-17T14:40:46;22.90;99.90
4701;DHT22;8724;51.272;6.554;2023-08-17T14:43:14;22.80;99.90
4701;DHT22;8724;51.272;6.554;2023-08-17T14:45:45;22.80;99.90
4701;DHT22;8724;51.272;6.554;2023-08-17T14:48:13;22.80;99.90
4701;DHT22;8724;51.272;6.554;2023-08-17T14:50:41;22.90;99.90
4701;DHT22;8724;51.272;6.554;2023-08-17T14:53:10;22.90;99.90
4701;DHT22;8724;51.272;6.554;2023-08-17T14:55:38;22.90;99.90
4701;DHT22;8724;51.272;6.554;2023-08-17T14:58:06;22.90;99.90
4701;DHT22;8724;51.272;6.554;2023-08-17T15:00:34;22.90;99.90
4701;DHT22;8724;51.272;6.554;2023-08-17T15:03:04;23.00;99.90
4701;DHT22;8724;51.272;6.554;2023-08-17T15:05:32;23.00;99.90
4701;DHT22;8724;51.272;6.554;2023-08-17T15:08:03;23.10;99.90
4701;DHT22;8724;51.272;6.554;2023-08-17T15:10:32;23.00;99.90
4701;DHT22;8724;51.272;6.554;2023-08-17T15:13:02;23.00;99.90
4701;DHT22;8724;51.272;6.554;2023-08-17T15:15:30;23.00;99.90
4701;DHT22;8724;51.272;6.554;2023-08-17T15:17:58;23.00;99.90
4701;DHT22;8724;51.272;6.554;2023-08-17T15:20:29;23.00;99.90
4701;DHT22;8724;51.272;6.554;2023-08-17T15:22:57;23.10;99.90
4701;DHT22;8724;51.272;6.554;2023-08-17T15:25:27;23.10;99.90
4701;DHT22;8724;51.272;6.554;2023-08-17T15:27:55;23.10;99.90
4701;DHT22;8724;51.272;6.554;2023-08-17T15:30:41;23.10;99.90
4701;DHT22;8724;51.272;6.554;2023-08-17T15:33:11;23.10;99.90
4701;DHT22;8724;51.272;6.554;2023-08-17T15:35:41;23.10;99.90
4701;DHT22;8724;51.272;6.554;2023-08-17T15:38:09;23.10;99.90
4701;DHT22;8724;51.272;6.554;2023-08-17T15:40:37;23.10;99.90
4701;DHT22;8724;51.272;6.554;2023-08-17T15:43:05;23.10;99.90
4701;DHT22;8724;51.272;6.554;2023-08-17T15:45:34;23.10;99.90
4701;DHT22;8724;51.272;6.554;2023-08-17T15:48:03;23.10;99.90
4701;DHT22;8724;51.272;6.554;2023-08-17T15:50:31;23.10;99.90
4701;DHT22;8724;51.272;6.554;2023-08-17T15:53:01;23.10;99.90
4701;DHT22;8724;51.272;6.554;2023-08-17T15:55:30;23.10;99.90
4701;DHT22;8724;51.272;6.554;2023-08-17T15:57:58;23.10;99.90
4701;DHT22;8724;51.272;6.554;2023-08-17T16:00:26;23.50;99.90
4701;DHT22;8724;51.272;6.554;2023-08-17T16:02:54;23.20;99.90
4701;DHT22;8724;51.272;6.554;2023-08-17T16:05:23;23.40;99.90
4701;DHT22;8724;51.272;6.554;2023-08-17T16:07:51;23.30;99.90
4701;DHT22;8724;51.272;6.554;2023-08-17T16:10:21;23.50;99.90
4701;DHT22;8724;51.272;6.554;2023-08-17T16:12:49;23.30;99.90
4701;DHT22;8724;51.272;6.554;2023-08-17T16:15:17;23.40;99.90
4701;DHT22;8724;51.272;6.554;2023-08-17T16:17:45;23.50;99.90
4701;DHT22;8724;51.272;6.554;2023-08-17T16:20:14;23.50;99.90